Time;durP1;ratioP1;P1;durP2;ratioP2;P2;SDS_P1;SDS_P2;PMS_P1;PMS_P2;Temp;Humidity;BMP_temperature;BMP_pressure;BME280_temperature;BME280_humidity;BME280_pressure;Samples;Min_cycle;Max_cycle;Signal;HPM_P1;HPM_P2
2022/06/29 00:00:53;;;;;;;2.63;1.90;;;24.20;99.90;;;;;;4159029;28;20614;-75
2022/06/29 00:02:57;;;;;;;1.92;1.70;;;24.20;99.90;;;;;;4159997;28;20706;-75
2022/06/29 00:04:59;;;;;;;1.92;1.73;;;24.20;99.90;;;;;;4161743;28;20302;-75
2022/06/29 00:07:01;;;;;;;3.03;1.77;;;24.20;99.90;;;;;;4159041;28;20262;-75
2022/06/29 00:09:04;;;;;;;3.45;1.88;;;24.20;99.90;;;;;;4159455;28;20244;-75
2022/06/29 00:11:06;;;;;;;2.75;1.73;;;24.20;99.90;;;;;;4160816;28;21645;-75
2022/06/29 00:13:09;;;;;;;2.92;1.60;;;24.20;99.90;;;;;;4161604;28;20286;-75
2022/06/29 00:15:14;;;;;;;2.17;1.42;;;24.20;99.90;;;;;;4161341;28;20672;-75
2022/06/29 00:17:16;;;;;;;2.88;1.95;;;24.20;99.90;;;;;;4158155;28;20216;-75
2022/06/29 00:19:18;;;;;;;2.60;1.42;;;24.20;99.90;;;;;;4161587;28;20217;-75
2022/06/29 00:21:20;;;;;;;2.25;1.90;;;24.20;99.90;;;;;;4161502;28;20212;-75
2022/06/29 00:23:23;;;;;;;2.33;1.70;;;24.20;99.90;;;;;;4159049;28;20213;-75
2022/06/29 00:25:25;;;;;;;3.40;2.08;;;24.20;99.90;;;;;;4158701;28;20220;-75
2022/06/29 00:27:27;;;;;;;3.47;1.52;;;24.20;99.90;;;;;;4161145;28;20236;-75
2022/06/29 00:29:30;;;;;;;2.70;1.58;;;24.10;99.90;;;;;;4162493;28;20216;-75
2022/06/29 00:31:33;;;;;;;2.67;1.40;;;24.20;99.90;;;;;;4162245;28;20221;-75
2022/06/29 00:33:36;;;;;;;2.40;1.67;;;24.20;99.90;;;;;;4161109;28;20303;-74
2022/06/29 00:35:38;;;;;;;3.20;2.15;;;24.10;99.90;;;;;;4162110;28;20224;-74
2022/06/29 00:37:40;;;;;;;2.03;1.83;;;24.10;99.90;;;;;;4162068;28;20212;-74
2022/06/29 00:39:43;;;;;;;3.50;1.70;;;24.20;99.90;;;;;;4160514;28;20267;-75
2022/06/29 00:41:46;;;;;;;2.47;1.50;;;24.10;99.90;;;;;;4161569;28;20220;-75
2022/06/29 00:43:49;;;;;;;2.05;1.80;;;24.10;99.90;;;;;;4162042;28;20620;-74
2022/06/29 00:45:51;;;;;;;2.13;1.67;;;24.10;99.90;;;;;;4162222;28;20270;-74
2022/06/29 00:47:55;;;;;;;2.08;1.58;;;24.10;99.90;;;;;;4157485;28;20571;-75
2022/06/29 00:49:57;;;;;;;2.28;1.77;;;24.10;99.90;;;;;;4161045;28;20258;-75
2022/06/29 00:52:04;;;;;;;2.67;1.80;;;24.10;99.90;;;;;;4160759;28;20623;-75
2022/06/29 00:54:09;;;;;;;2.75;1.95;;;24.10;99.90;;;;;;4159424;28;20268;-75
2022/06/29 00:56:13;;;;;;;2.90;1.90;;;24.10;99.90;;;;;;4161080;28;20220;-75
2022/06/29 00:58:17;;;;;;;2.50;1.88;;;24.10;99.90;;;;;;4158546;28;20220;-75
2022/06/29 01:00:20;;;;;;;3.35;1.80;;;24.10;99.90;;;;;;4159228;28;20220;-75
2022/06/29 01:02:25;;;;;;;3.63;1.88;;;24.10;99.90;;;;;;4160208;28;20208;-75
2022/06/29 01:04:28;;;;;;;3.25;1.58;;;24.10;99.90;;;;;;4160970;28;20251;-75
2022/06/29 01:06:32;;;;;;;3.08;1.80;;;24.10;99.90;;;;;;4159771;28;20290;-75
2022/06/29 01:08:34;;;;;;;2.72;1.80;;;24.10;99.90;;;;;;4160465;28;20627;-75
2022/06/29 01:10:36;;;;;;;2.00;1.65;;;24.10;99.90;;;;;;4160283;28;20217;-75
2022/06/29 01:12:39;;;;;;;3.10;1.70;;;24.00;99.90;;;;;;4160520;28;20208;-75
2022/06/29 01:14:43;;;;;;;2.10;1.67;;;24.00;99.90;;;;;;4160145;28;20204;-75
2022/06/29 01:16:46;;;;;;;3.03;1.90;;;24.00;99.90;;;;;;4160007;28;20251;-75
2022/06/29 01:18:48;;;;;;;4.00;1.95;;;24.10;99.90;;;;;;4160556;28;20213;-75
2022/06/29 01:20:51;;;;;;;1.98;1.60;;;24.00;99.90;;;;;;4160665;28;20986;-75
2022/06/29 01:22:55;;;;;;;3.05;1.60;;;24.00;99.90;;;;;;4160793;28;20221;-75
2022/06/29 01:24:58;;;;;;;2.38;1.90;;;24.00;99.90;;;;;;4159358;28;20216;-74
2022/06/29 01:27:00;;;;;;;2.65;1.80;;;24.00;99.90;;;;;;4159397;28;20286;-74
2022/06/29 01:29:03;;;;;;;2.88;1.65;;;24.00;99.90;;;;;;4160243;28;20634;-75
2022/06/29 01:31:05;;;;;;;2.70;1.60;;;24.00;99.90;;;;;;4159395;28;20714;-75
2022/06/29 01:33:07;;;;;;;2.20;1.60;;;24.00;99.90;;;;;;4159149;28;20266;-75
2022/06/29 01:35:11;;;;;;;2.13;1.65;;;24.00;99.90;;;;;;4159593;28;20228;-75
2022/06/29 01:37:14;;;;;;;2.78;1.73;;;24.00;99.90;;;;;;4161469;28;20208;-75
2022/06/29 01:39:18;;;;;;;2.47;1.80;;;24.00;99.90;;;;;;4160099;28;20220;-74
2022/06/29 01:41:20;;;;;;;3.63;1.98;;;24.00;99.90;;;;;;4160554;28;20216;-75
2022/06/29 01:43:22;;;;;;;2.22;1.48;;;23.90;99.90;;;;;;4159927;28;20815;-75
2022/06/29 01:45:25;;;;;;;2.58;1.75;;;24.00;99.90;;;;;;4159713;28;20216;-75
2022/06/29 01:47:27;;;;;;;2.65;1.90;;;23.90;99.90;;;;;;4159107;28;20229;-75
2022/06/29 01:49:29;;;;;;;2.22;1.48;;;23.90;99.90;;;;;;4157370;28;20221;-75
2022/06/29 01:51:32;;;;;;;3.60;2.28;;;23.90;99.90;;;;;;4160348;28;20212;-74
2022/06/29 01:53:34;;;;;;;2.67;1.75;;;23.90;99.90;;;;;;4160248;28;20270;-74
2022/06/29 01:55:38;;;;;;;4.53;2.03;;;23.90;99.90;;;;;;4159689;28;20653;-75
2022/06/29 01:57:40;;;;;;;3.97;1.85;;;23.90;99.90;;;;;;4159131;28;20620;-75
2022/06/29 01:59:43;;;;;;;2.38;1.83;;;23.90;99.90;;;;;;4159779;28;20212;-75
2022/06/29 02:01:47;;;;;;;2.50;1.88;;;23.90;99.90;;;;;;4160397;28;20568;-75
2022/06/29 02:03:50;;;;;;;3.58;2.03;;;23.90;99.90;;;;;;4160406;28;20216;-75
2022/06/29 02:05:53;;;;;;;3.17;1.73;;;23.90;99.90;;;;;;4158174;28;20270;-75
2022/06/29 02:07:56;;;;;;;2.95;1.80;;;23.90;99.90;;;;;;4158436;28;20244;-75
2022/06/29 02:09:58;;;;;;;2.60;1.85;;;23.90;99.90;;;;;;4159283;28;20687;-75
2022/06/29 02:12:01;;;;;;;2.63;1.73;;;23.90;99.90;;;;;;4159750;28;20333;-75
2022/06/29 02:14:04;;;;;;;2.45;1.88;;;23.90;99.90;;;;;;4159576;28;20224;-75
2022/06/29 02:16:06;;;;;;;2.40;1.70;;;23.90;99.90;;;;;;4159925;28;20298;-75
2022/06/29 02:18:08;;;;;;;2.97;1.50;;;23.80;99.90;;;;;;4159470;28;20207;-75
2022/06/29 02:20:12;;;;;;;4.05;2.00;;;23.80;99.90;;;;;;4159596;28;20275;-75
2022/06/29 02:22:15;;;;;;;2.63;1.50;;;23.90;99.90;;;;;;4157225;28;20224;-75
2022/06/29 02:24:17;;;;;;;2.80;1.88;;;23.90;99.90;;;;;;4157801;28;20263;-74
2022/06/29 02:26:19;;;;;;;2.38;1.60;;;23.80;99.90;;;;;;4159617;28;20645;-75
2022/06/29 02:28:23;;;;;;;3.03;1.38;;;23.80;99.90;;;;;;4159554;28;20322;-74
2022/06/29 02:34:43;;;;;;;2.22;1.67;;;23.80;99.90;;;;;;4159352;28;20274;-74
2022/06/29 02:35:06;;;;;;;2.50;1.88;;;23.80;99.90;;;;;;4128418;28;20713;-74
2022/06/29 02:37:08;;;;;;;2.63;1.92;;;23.80;99.90;;;;;;4159335;28;20258;-75
2022/06/29 02:39:11;;;;;;;2.53;2.00;;;23.80;99.90;;;;;;4158078;28;20225;-75
2022/06/29 02:41:13;;;;;;;3.05;1.80;;;23.80;99.90;;;;;;4158925;28;20208;-75
2022/06/29 02:43:15;;;;;;;4.05;1.90;;;23.80;99.90;;;;;;4159045;28;20221;-75
2022/06/29 02:45:19;;;;;;;2.08;1.60;;;23.80;99.90;;;;;;4159432;28;20660;-75
2022/06/29 02:47:21;;;;;;;3.25;2.20;;;23.80;99.90;;;;;;4159433;28;20607;-75
2022/06/29 02:49:24;;;;;;;2.47;1.70;;;23.80;99.90;;;;;;4159337;28;20948;-75
2022/06/29 02:51:26;;;;;;;2.10;1.80;;;23.80;99.90;;;;;;4158033;28;20244;-74
2022/06/29 02:53:28;;;;;;;2.30;1.50;;;23.80;99.90;;;;;;4159054;28;20286;-74
2022/06/29 02:55:30;;;;;;;2.47;1.75;;;23.80;99.90;;;;;;4157442;28;20243;-75
2022/06/29 02:57:33;;;;;;;4.03;2.08;;;23.80;99.90;;;;;;4155499;28;20607;-75
2022/06/29 02:59:35;;;;;;;2.95;1.67;;;23.80;99.90;;;;;;4156521;28;20209;-75
2022/06/29 03:01:39;;;;;;;2.10;1.70;;;23.80;99.90;;;;;;4159757;28;20270;-75
2022/06/29 03:03:41;;;;;;;2.92;1.70;;;23.80;99.90;;;;;;4159286;28;20217;-74
2022/06/29 03:05:44;;;;;;;2.42;1.70;;;23.80;99.90;;;;;;4158471;28;20217;-75
2022/06/29 03:07:46;;;;;;;3.03;2.05;;;23.80;99.90;;;;;;4158325;28;20244;-75
2022/06/29 03:09:48;;;;;;;2.20;1.65;;;23.80;99.90;;;;;;4157963;28;20661;-75
2022/06/29 03:11:51;;;;;;;2.58;1.90;;;23.80;99.90;;;;;;4159357;28;20670;-75
2022/06/29 03:13:53;;;;;;;2.67;1.80;;;23.80;99.90;;;;;;4158660;28;20241;-75
2022/06/29 03:15:55;;;;;;;2.45;1.70;;;23.80;99.90;;;;;;4158094;28;20266;-75
2022/06/29 03:17:59;;;;;;;3.03;1.73;;;23.80;99.90;;;;;;4160181;28;20212;-75
2022/06/29 03:20:04;;;;;;;2.75;1.88;;;23.70;99.90;;;;;;4160014;28;20282;-79
2022/06/29 03:22:06;;;;;;;3.03;1.60;;;23.70;99.90;;;;;;4160643;28;20242;-79
2022/06/29 03:24:09;;;;;;;3.13;1.85;;;23.80;99.90;;;;;;4160265;28;20217;-79
2022/06/29 03:26:11;;;;;;;2.95;1.65;;;23.80;99.90;;;;;;4159675;28;20282;-79
2022/06/29 03:28:14;;;;;;;3.17;1.70;;;23.70;99.90;;;;;;4159689;28;20237;-79
2022/06/29 03:30:16;;;;;;;1.95;1.48;;;23.70;99.90;;;;;;4158913;28;20216;-79
2022/06/29 03:32:18;;;;;;;2.35;1.70;;;23.70;99.90;;;;;;4158902;28;20213;-79
2022/06/29 03:34:22;;;;;;;1.90;1.60;;;23.70;99.90;;;;;;4158818;28;20290;-79
2022/06/29 03:36:24;;;;;;;3.97;1.80;;;23.70;99.90;;;;;;4159787;28;20258;-79
2022/06/29 03:38:27;;;;;;;2.80;1.70;;;23.70;99.90;;;;;;4159973;28;20263;-79
2022/06/29 03:40:29;;;;;;;2.90;1.85;;;23.70;99.90;;;;;;4160465;28;20355;-79
2022/06/29 03:42:31;;;;;;;3.22;1.80;;;23.70;99.90;;;;;;4160776;28;20274;-79
2022/06/29 03:44:34;;;;;;;2.38;1.70;;;23.70;99.90;;;;;;4160080;28;20278;-79
2022/06/29 03:46:36;;;;;;;2.00;1.63;;;23.70;99.90;;;;;;4158889;28;20267;-79
2022/06/29 03:48:38;;;;;;;2.63;1.85;;;23.70;99.90;;;;;;4161366;28;20248;-78
2022/06/29 03:50:42;;;;;;;2.15;1.83;;;23.70;99.90;;;;;;4162178;28;20621;-79
2022/06/29 03:52:44;;;;;;;3.03;1.70;;;23.70;99.90;;;;;;4160857;28;20278;-78
2022/06/29 03:54:47;;;;;;;2.90;1.60;;;23.70;99.90;;;;;;4163571;28;20580;-79
2022/06/29 03:56:49;;;;;;;2.10;1.55;;;23.60;99.90;;;;;;4163054;28;20220;-79
2022/06/29 03:58:51;;;;;;;3.47;1.88;;;23.70;99.90;;;;;;4162883;28;20208;-79
2022/06/29 04:00:54;;;;;;;2.95;1.80;;;23.70;99.90;;;;;;4162210;28;20213;-79
2022/06/29 04:02:56;;;;;;;3.35;2.00;;;23.70;99.90;;;;;;4163448;28;20358;-79
2022/06/29 04:04:58;;;;;;;2.95;1.52;;;23.70;99.90;;;;;;4161438;28;20220;-79
2022/06/29 04:07:02;;;;;;;2.22;1.70;;;23.70;99.90;;;;;;4161371;28;20316;-79
2022/06/29 04:09:04;;;;;;;2.63;1.80;;;23.70;99.90;;;;;;4162236;28;20289;-79
2022/06/29 04:11:48;;;;;;;2.35;1.90;;;23.70;99.90;;;;;;4163341;28;20274;-79
2022/06/29 04:13:29;;;;;;;3.35;1.73;;;23.70;99.90;;;;;;4162436;28;20262;-79
2022/06/29 04:15:32;;;;;;;2.33;1.73;;;23.70;99.90;;;;;;4162792;28;20220;-79
2022/06/29 04:17:34;;;;;;;2.70;1.77;;;23.70;99.90;;;;;;4163231;28;20653;-79
2022/06/29 04:19:37;;;;;;;3.42;1.75;;;23.70;99.90;;;;;;4163032;28;20279;-79
2022/06/29 04:21:38;;;;;;;3.10;1.65;;;23.70;99.90;;;;;;4161529;28;20315;-79
2022/06/29 04:23:42;;;;;;;2.40;1.80;;;23.60;99.90;;;;;;4162373;28;20217;-79
2022/06/29 04:25:44;;;;;;;4.18;1.75;;;23.70;99.90;;;;;;4161319;28;20208;-79
2022/06/29 04:27:47;;;;;;;2.95;1.80;;;23.60;99.90;;;;;;4163701;28;20259;-79
2022/06/29 04:29:49;;;;;;;3.05;2.25;;;23.70;99.90;;;;;;4162940;28;20213;-79
2022/06/29 04:31:51;;;;;;;2.92;1.88;;;23.60;99.90;;;;;;4161044;28;20280;-79
2022/06/29 04:33:54;;;;;;;2.80;1.80;;;23.70;99.90;;;;;;4162057;28;20278;-79
2022/06/29 04:35:56;;;;;;;3.10;1.70;;;23.60;99.90;;;;;;4162775;28;20673;-79
2022/06/29 04:37:59;;;;;;;2.42;1.80;;;23.60;99.90;;;;;;4161008;28;20220;-79
2022/06/29 04:40:03;;;;;;;3.47;1.70;;;23.60;99.90;;;;;;4160394;28;20216;-79
2022/06/29 04:42:05;;;;;;;2.80;1.83;;;23.60;99.90;;;;;;4163018;28;20216;-79
2022/06/29 04:44:08;;;;;;;3.28;1.70;;;23.70;99.90;;;;;;4162731;28;20225;-79
2022/06/29 04:46:22;;;;;;;2.55;1.92;;;23.60;99.90;;;;;;4162340;28;20212;-79
2022/06/29 04:48:24;;;;;;;4.20;2.05;;;23.70;99.90;;;;;;4162622;28;20248;-79
2022/06/29 04:50:28;;;;;;;3.63;1.80;;;23.70;99.90;;;;;;4162689;28;20739;-79
2022/06/29 04:52:30;;;;;;;2.13;1.60;;;23.70;99.90;;;;;;4163096;28;20725;-79
2022/06/29 04:54:33;;;;;;;3.38;1.90;;;23.70;99.90;;;;;;4160756;28;20216;-79
2022/06/29 04:56:37;;;;;;;2.47;1.77;;;23.70;99.90;;;;;;4159641;28;20212;-79
2022/06/29 04:58:39;;;;;;;2.22;1.40;;;23.60;99.90;;;;;;4162552;28;20212;-79
2022/06/29 05:00:42;;;;;;;3.55;2.00;;;23.60;99.90;;;;;;4162518;28;20362;-79
2022/06/29 05:02:44;;;;;;;2.97;1.92;;;23.70;99.90;;;;;;4162630;28;20965;-79
2022/06/29 05:04:48;;;;;;;3.25;1.80;;;23.60;99.90;;;;;;4162538;28;20612;-79
2022/06/29 05:06:50;;;;;;;2.15;1.70;;;23.70;99.90;;;;;;4162095;28;20216;-79
2022/06/29 05:08:53;;;;;;;3.42;1.70;;;23.70;99.90;;;;;;4162216;28;20240;-79
2022/06/29 05:10:56;;;;;;;2.13;1.70;;;23.70;99.90;;;;;;4162157;28;20228;-78
2022/06/29 05:12:59;;;;;;;3.15;1.70;;;23.70;99.90;;;;;;4160623;28;20216;-79
2022/06/29 05:15:01;;;;;;;2.90;1.90;;;23.70;99.90;;;;;;4160512;28;20209;-79
2022/06/29 05:17:04;;;;;;;2.40;1.65;;;23.70;99.90;;;;;;4161648;28;20286;-79
2022/06/29 05:19:06;;;;;;;2.45;1.55;;;23.70;99.90;;;;;;4161833;28;20217;-79
2022/06/29 05:21:09;;;;;;;3.00;2.03;;;23.70;99.90;;;;;;4161321;28;20262;-79
2022/06/29 05:23:11;;;;;;;3.38;1.83;;;23.70;99.90;;;;;;4160997;28;20221;-79
2022/06/29 05:25:14;;;;;;;2.55;1.77;;;23.70;99.90;;;;;;4160540;28;20228;-79
2022/06/29 05:27:16;;;;;;;1.88;1.50;;;23.70;99.90;;;;;;4159997;28;20224;-79
2022/06/29 05:29:20;;;;;;;3.17;1.83;;;23.70;99.90;;;;;;4157538;28;20237;-79
2022/06/29 05:31:23;;;;;;;4.13;1.60;;;23.70;99.90;;;;;;4159490;28;20708;-79
2022/06/29 05:33:25;;;;;;;5.93;2.38;;;23.60;99.90;;;;;;4157116;28;20246;-79
2022/06/29 05:35:29;;;;;;;3.50;1.80;;;23.60;99.90;;;;;;4156256;28;20240;-79
2022/06/29 05:37:31;;;;;;;5.50;2.20;;;23.60;99.90;;;;;;4160120;28;20728;-79
2022/06/29 05:39:33;;;;;;;7.50;2.30;;;23.50;99.90;;;;;;4159096;28;20310;-79
2022/06/29 05:41:36;;;;;;;6.55;2.40;;;23.40;99.90;;;;;;4155967;28;20221;-79
2022/06/29 05:43:38;;;;;;;7.03;2.53;;;23.40;99.90;;;;;;4159947;28;20220;-80
2022/06/29 05:45:42;;;;;;;3.70;2.50;;;23.40;99.90;;;;;;4160108;28;20212;-79
2022/06/29 05:47:44;;;;;;;8.90;2.60;;;23.30;99.90;;;;;;4157113;28;20225;-80
2022/06/29 05:49:46;;;;;;;4.97;2.60;;;23.30;99.90;;;;;;4160984;28;20350;-80
2022/06/29 05:51:48;;;;;;;6.80;2.47;;;23.30;99.90;;;;;;4159312;28;20255;-80
2022/06/29 05:53:51;;;;;;;5.90;2.58;;;23.30;99.90;;;;;;4161502;28;20275;-79
2022/06/29 05:55:53;;;;;;;11.52;2.50;;;23.30;99.90;;;;;;4160990;28;20221;-79
2022/06/29 05:57:56;;;;;;;6.10;2.30;;;23.30;99.90;;;;;;4160132;28;20289;-80
2022/06/29 05:59:58;;;;;;;8.57;2.65;;;23.30;99.90;;;;;;4161008;28;20212;-79
2022/06/29 06:02:01;;;;;;;7.22;2.50;;;23.30;99.90;;;;;;4160567;28;20220;-79
2022/06/29 06:04:04;;;;;;;7.35;2.63;;;23.30;99.90;;;;;;4159850;28;20231;-79
2022/06/29 06:06:06;;;;;;;7.65;2.53;;;23.30;99.90;;;;;;4159353;28;20228;-79
2022/06/29 06:08:09;;;;;;;7.43;2.58;;;23.40;99.90;;;;;;4160264;28;20232;-79
2022/06/29 06:10:11;;;;;;;8.73;2.88;;;23.40;99.90;;;;;;4158796;28;20232;-79
2022/06/29 06:12:14;;;;;;;7.22;2.38;;;23.40;99.90;;;;;;4160593;28;20294;-79
2022/06/29 06:14:16;;;;;;;6.35;2.30;;;23.40;99.90;;;;;;4160487;28;20676;-79
2022/06/29 06:16:19;;;;;;;6.53;2.42;;;23.40;99.90;;;;;;4156651;28;20225;-79
2022/06/29 06:18:22;;;;;;;6.25;2.42;;;23.40;99.90;;;;;;4159667;28;20212;-79
2022/06/29 06:20:25;;;;;;;6.05;2.55;;;23.40;99.90;;;;;;4157862;28;20222;-79
2022/06/29 06:22:27;;;;;;;6.05;2.60;;;23.30;99.90;;;;;;4157485;28;20216;-79
2022/06/29 06:24:29;;;;;;;6.57;2.72;;;23.40;99.90;;;;;;4160044;28;20224;-79
2022/06/29 06:26:32;;;;;;;5.47;2.17;;;23.40;99.90;;;;;;4160744;28;20317;-79
2022/06/29 06:28:34;;;;;;;5.47;2.38;;;23.50;99.90;;;;;;4160964;28;20270;-79
2022/06/29 06:30:37;;;;;;;3.30;1.80;;;23.50;99.90;;;;;;4161118;28;20279;-79
2022/06/29 06:32:39;;;;;;;3.63;1.80;;;23.60;99.90;;;;;;4159885;28;20653;-80
2022/06/29 06:34:43;;;;;;;2.97;2.00;;;23.60;99.90;;;;;;4161121;28;20220;-79
2022/06/29 06:36:45;;;;;;;4.40;2.10;;;23.60;99.90;;;;;;4158844;28;20217;-79
2022/06/29 06:38:47;;;;;;;3.47;1.85;;;23.60;99.90;;;;;;4159119;28;20343;-79
2022/06/29 06:43:11;;;;;;;3.55;1.95;;;23.70;99.90;;;;;;4153460;28;20270;-80
2022/06/29 06:45:14;;;;;;;4.65;2.05;;;23.70;99.90;;;;;;4160346;28;20282;-79
2022/06/29 06:47:16;;;;;;;7.18;2.30;;;23.70;99.90;;;;;;4160253;28;20638;-79
2022/06/29 06:49:22;;;;;;;7.85;2.58;;;23.70;99.90;;;;;;4158202;28;20852;-79
2022/06/29 06:51:26;;;;;;;5.65;2.47;;;23.70;99.90;;;;;;4160723;28;20262;-80
2022/06/29 06:53:28;;;;;;;10.52;2.90;;;23.60;99.90;;;;;;4159562;28;20212;-81
2022/06/29 06:55:31;;;;;;;15.90;3.00;;;23.50;99.90;;;;;;4155499;28;20271;-80
2022/06/29 06:57:33;;;;;;;12.05;2.90;;;23.50;99.90;;;;;;4159968;28;20672;-79
2022/06/29 06:59:36;;;;;;;11.75;2.65;;;23.30;99.90;;;;;;4159343;28;20265;-79
2022/06/29 07:01:39;;;;;;;7.80;2.75;;;23.30;99.90;;;;;;4157518;28;20224;-80
2022/06/29 07:03:41;;;;;;;6.78;2.70;;;23.50;99.90;;;;;;4160684;28;20212;-80
2022/06/29 07:05:43;;;;;;;9.57;2.58;;;23.50;99.90;;;;;;4158173;28;20352;-80
2022/06/29 07:07:47;;;;;;;7.55;2.42;;;23.50;99.90;;;;;;4158879;28;20680;-78
2022/06/29 07:09:49;;;;;;;5.45;2.50;;;23.40;99.90;;;;;;4155348;28;20232;-78
2022/06/29 07:11:51;;;;;;;6.05;2.60;;;23.50;99.90;;;;;;4158201;28;20220;-81
2022/06/29 07:13:54;;;;;;;8.50;2.75;;;23.50;99.90;;;;;;4158813;28;20851;-84
2022/06/29 07:15:56;;;;;;;9.45;2.53;;;23.50;99.90;;;;;;4161369;28;20216;-83
2022/06/29 07:17:58;;;;;;;7.93;2.60;;;23.60;99.90;;;;;;4155430;28;20672;-83
2022/06/29 07:20:01;;;;;;;7.10;2.28;;;23.70;99.90;;;;;;4160498;28;20264;-82
2022/06/29 07:22:03;;;;;;;5.28;2.42;;;23.70;99.90;;;;;;4164135;28;20220;-79
2022/06/29 07:24:08;;;;;;;9.52;2.95;;;23.70;99.90;;;;;;4160542;28;20719;-78
2022/06/29 07:26:10;;;;;;;12.93;3.30;;;23.60;99.90;;;;;;4162102;28;20548;-81
2022/06/29 07:28:12;;;;;;;8.93;3.15;;;23.50;99.90;;;;;;4162098;28;20274;-81
2022/06/29 07:30:15;;;;;;;9.52;2.70;;;23.50;99.90;;;;;;4158050;28;20232;-80
2022/06/29 07:32:17;;;;;;;8.77;2.85;;;23.60;99.90;;;;;;4161369;28;20258;-80
2022/06/29 07:34:19;;;;;;;7.57;2.92;;;23.50;99.90;;;;;;4156991;28;20287;-79
2022/06/29 07:36:22;;;;;;;6.40;2.97;;;23.70;99.90;;;;;;4163519;28;20263;-80
2022/06/29 07:38:24;;;;;;;8.55;2.63;;;23.70;99.90;;;;;;4159853;28;20216;-80
2022/06/29 07:40:28;;;;;;;9.85;2.72;;;23.80;99.90;;;;;;4156869;28;20212;-78
2022/06/29 07:42:32;;;;;;;5.70;2.70;;;23.80;99.90;;;;;;4157884;28;20254;-79
2022/06/29 07:44:34;;;;;;;8.52;2.80;;;23.90;99.90;;;;;;4156604;28;20243;-79
2022/06/29 07:46:37;;;;;;;9.15;3.13;;;23.90;99.90;;;;;;4162597;28;20229;-80
2022/06/29 07:48:39;;;;;;;9.27;3.13;;;23.80;99.90;;;;;;4162271;28;20216;-79
2022/06/29 07:50:41;;;;;;;8.57;3.28;;;23.90;99.90;;;;;;4161735;28;20236;-78
2022/06/29 07:52:43;;;;;;;7.55;2.95;;;23.90;99.90;;;;;;4152336;28;20217;-78
2022/06/29 07:54:46;;;;;;;11.45;3.20;;;23.90;99.90;;;;;;4153831;28;20312;-81
2022/06/29 07:56:49;;;;;;;4.85;2.33;;;23.80;99.90;;;;;;4152340;28;20271;-81
2022/06/29 07:58:52;;;;;;;9.50;3.15;;;23.90;99.90;;;;;;4156806;28;20579;-82
2022/06/29 08:00:54;;;;;;;5.40;2.50;;;24.00;99.90;;;;;;4154661;28;20221;-79
2022/06/29 08:02:56;;;;;;;8.13;2.60;;;24.10;99.90;;;;;;4152841;28;20247;-79
2022/06/29 08:05:01;;;;;;;5.13;2.03;;;24.20;99.90;;;;;;4155465;28;20318;-84
2022/06/29 08:07:04;;;;;;;6.47;2.40;;;24.20;99.90;;;;;;4162105;28;20220;-82
2022/06/29 08:09:06;;;;;;;4.70;2.45;;;24.20;99.90;;;;;;4158271;28;20236;-83
2022/06/29 08:11:09;;;;;;;5.35;2.53;;;24.30;99.90;;;;;;4160157;28;20290;-84
2022/06/29 08:13:13;;;;;;;6.32;2.53;;;24.30;99.90;;;;;;4156311;28;20220;-84
2022/06/29 08:15:17;;;;;;;8.00;2.45;;;24.40;99.90;;;;;;4159488;28;20300;-79
2022/06/29 08:17:20;;;;;;;6.97;2.53;;;24.40;99.90;;;;;;4161444;28;20216;-80
2022/06/29 08:19:22;;;;;;;7.20;2.47;;;24.40;99.90;;;;;;4159781;28;20220;-81
2022/06/29 08:21:24;;;;;;;6.47;2.58;;;24.40;99.90;;;;;;4155789;28;20239;-84
2022/06/29 08:23:27;;;;;;;3.97;2.35;;;24.40;99.90;;;;;;4160425;28;20217;-82
2022/06/29 08:25:31;;;;;;;6.30;2.80;;;24.40;99.90;;;;;;4155973;28;20212;-82
2022/06/29 08:27:33;;;;;;;5.35;2.67;;;24.40;99.90;;;;;;4157511;28;20216;-82
2022/06/29 08:29:37;;;;;;;4.20;2.40;;;24.50;99.90;;;;;;4159604;28;20931;-80
2022/06/29 08:31:39;;;;;;;4.82;2.28;;;24.40;99.90;;;;;;4156009;28;20520;-84
2022/06/29 08:33:43;;;;;;;5.38;2.60;;;24.40;99.90;;;;;;4159682;28;20675;-83
2022/06/29 08:35:45;;;;;;;5.38;2.40;;;24.40;99.90;;;;;;4155815;28;20340;-83
2022/06/29 08:37:48;;;;;;;8.85;2.65;;;24.40;99.90;;;;;;4157932;28;20278;-86
2022/06/29 08:39:51;;;;;;;6.53;2.58;;;24.50;99.90;;;;;;4161781;28;20661;-84
2022/06/29 08:41:55;;;;;;;4.03;2.53;;;24.40;99.90;;;;;;4158096;28;20629;-81
2022/06/29 08:44:01;;;;;;;7.55;2.60;;;24.40;99.90;;;;;;4159652;28;20700;-85
2022/06/29 08:46:05;;;;;;;6.35;2.70;;;24.50;99.90;;;;;;4156291;28;20351;-84
2022/06/29 08:48:08;;;;;;;3.97;2.40;;;24.50;99.90;;;;;;4154174;28;20221;-82
2022/06/29 08:50:12;;;;;;;4.93;2.40;;;24.50;99.90;;;;;;4154823;28;20236;-86
2022/06/29 08:52:15;;;;;;;5.82;2.40;;;24.40;99.90;;;;;;4156635;28;20213;-82
2022/06/29 08:54:20;;;;;;;5.22;2.20;;;24.50;99.90;;;;;;4155790;28;20623;-82
2022/06/29 08:56:23;;;;;;;4.18;2.30;;;24.50;99.90;;;;;;4153718;28;20216;-75
2022/06/29 08:58:27;;;;;;;9.95;3.03;;;24.50;99.90;;;;;;4153017;28;20265;-77
2022/06/29 09:00:29;;;;;;;4.75;2.30;;;24.50;99.90;;;;;;4158858;28;20224;-76
2022/06/29 09:02:35;;;;;;;8.45;2.92;;;24.50;99.90;;;;;;4155877;28;20220;-77
2022/06/29 09:04:37;;;;;;;6.57;2.92;;;24.50;99.90;;;;;;4157068;28;20282;-80
2022/06/29 09:06:39;;;;;;;6.35;2.90;;;24.50;99.90;;;;;;4158727;28;20929;-78
2022/06/29 09:08:41;;;;;;;5.55;2.28;;;24.50;99.90;;;;;;4155382;28;20240;-78
2022/06/29 09:10:44;;;;;;;5.68;2.47;;;24.50;99.90;;;;;;4157890;28;20644;-78
2022/06/29 09:12:52;;;;;;;7.70;2.63;;;24.60;99.90;;;;;;4151274;28;20221;-78
2022/06/29 09:14:54;;;;;;;8.13;2.80;;;24.60;99.90;;;;;;4150050;28;20266;-82
2022/06/29 09:17:02;;;;;;;5.53;2.85;;;24.60;99.90;;;;;;4154104;28;20239;-81
2022/06/29 09:19:05;;;;;;;7.47;3.13;;;24.60;99.90;;;;;;4155927;28;20273;-80
2022/06/29 09:21:08;;;;;;;7.68;2.97;;;24.50;99.90;;;;;;4160491;28;20209;-80
2022/06/29 09:23:11;;;;;;;7.03;3.20;;;24.50;99.90;;;;;;4160896;28;20217;-80
2022/06/29 09:25:23;;;;;;;11.98;3.40;;;24.50;99.90;;;;;;4150226;28;20741;-79
2022/06/29 09:27:26;;;;;;;7.95;3.40;;;24.60;99.90;;;;;;4151111;28;20673;-81
2022/06/29 09:29:31;;;;;;;7.43;3.25;;;24.60;99.90;;;;;;4151991;28;20228;-80
2022/06/29 09:31:33;;;;;;;6.82;3.10;;;24.60;99.90;;;;;;4156997;28;20278;-79
2022/06/29 09:33:36;;;;;;;7.38;3.00;;;24.60;99.90;;;;;;4155650;28;20220;-78
2022/06/29 09:35:43;;;;;;;8.65;3.20;;;24.60;99.90;;;;;;4153465;28;20263;-79
2022/06/29 09:37:45;;;;;;;7.53;3.28;;;24.60;99.90;;;;;;4153799;28;20212;-80
2022/06/29 09:39:49;;;;;;;8.02;3.50;;;24.70;99.90;;;;;;4149932;28;20212;-79
2022/06/29 09:41:59;;;;;;;7.03;3.20;;;24.70;99.90;;;;;;4159649;28;20615;-79
2022/06/29 09:44:01;;;;;;;6.00;2.97;;;24.60;99.90;;;;;;4148863;28;20622;-84
2022/06/29 09:46:04;;;;;;;10.40;3.65;;;24.70;99.90;;;;;;4153023;28;20217;-81
2022/06/29 09:48:07;;;;;;;10.65;3.38;;;24.70;99.90;;;;;;4155107;28;20629;-81
2022/06/29 09:50:10;;;;;;;8.82;3.30;;;24.70;99.90;;;;;;4161045;28;20228;-80
2022/06/29 09:52:14;;;;;;;5.32;3.05;;;24.70;99.90;;;;;;4157512;28;20236;-84
2022/06/29 09:54:18;;;;;;;8.38;3.15;;;24.70;99.90;;;;;;4158701;28;20228;-77
2022/06/29 09:56:22;;;;;;;7.32;3.28;;;24.80;99.90;;;;;;4150043;28;20255;-79
2022/06/29 09:58:37;;;;;;;7.47;3.15;;;24.70;99.90;;;;;;4147201;28;20567;-78
2022/06/29 10:03:07;;;;;;;7.10;2.85;;;24.70;99.90;;;;;;4146747;28;20188;-77
2022/06/29 10:05:13;;;;;;;7.50;2.97;;;24.70;99.90;;;;;;4147704;28;20250;-77
2022/06/29 10:07:17;;;;;;;8.75;2.97;;;24.70;99.90;;;;;;4156129;28;20287;-76
2022/06/29 10:09:19;;;;;;;12.30;2.72;;;24.70;99.90;;;;;;4155936;28;20244;-74
2022/06/29 10:13:57;;;;;;;6.00;2.65;;;24.70;99.90;;;;;;4150303;28;20198;-76
2022/06/29 10:16:07;;;;;;;5.05;2.85;;;24.80;99.90;;;;;;4159146;28;20970;-74
2022/06/29 10:18:20;;;;;;;8.23;2.83;;;24.80;99.90;;;;;;4152614;28;20809;-73
2022/06/29 10:20:35;;;;;;;8.57;2.97;;;24.80;99.90;;;;;;4152356;28;20215;-76
2022/06/29 10:22:40;;;;;;;5.97;2.85;;;24.90;99.90;;;;;;4154027;28;20939;-76
2022/06/29 10:25:01;;;;;;;5.65;2.70;;;24.90;99.90;;;;;;4154000;28;20653;-77
2022/06/29 10:27:07;;;;;;;6.70;2.47;;;24.70;99.90;;;;;;4152036;28;20213;-79
2022/06/29 10:29:29;;;;;;;7.03;2.53;;;24.80;99.90;;;;;;4155225;28;20288;-77
2022/06/29 10:32:05;;;;;;;5.13;2.10;;;24.70;99.90;;;;;;4152536;28;20278;-79
2022/06/29 10:34:41;;;;;;;5.75;2.22;;;24.70;99.90;;;;;;4155341;28;20277;-75
2022/06/29 10:36:58;;;;;;;8.07;2.28;;;24.90;99.90;;;;;;4147834;28;20220;-78
2022/06/29 10:39:14;;;;;;;4.60;2.05;;;24.80;99.90;;;;;;4148429;28;20220;-78
2022/06/29 10:43:38;;;;;;;5.90;1.90;;;24.70;99.90;;;;;;4153080;28;20275;-78
2022/06/29 10:45:44;;;;;;;4.00;1.92;;;24.70;99.90;;;;;;4153783;28;20274;-80
2022/06/29 10:48:07;;;;;;;4.57;1.90;;;24.70;99.90;;;;;;4147746;28;20243;-80
2022/06/29 10:50:23;;;;;;;4.10;2.20;;;24.70;99.90;;;;;;4150164;28;20225;-78
2022/06/29 10:52:26;;;;;;;7.20;2.20;;;24.70;99.90;;;;;;4151000;28;20282;-76
2022/06/29 10:54:32;;;;;;;5.35;1.80;;;24.80;99.90;;;;;;4150603;28;20263;-80